Time;durP1;ratioP1;P1;durP2;ratioP2;P2;SDS_P1;SDS_P2;PMS_P1;PMS_P2;Temp;Humidity;BMP_temperature;BMP_pressure;BME280_temperature;BME280_humidity;BME280_pressure;Samples;Min_cycle;Max_cycle;Signal;HPM_P1;HPM_P2
2024/04/07 00:01:12;;;;;;;11.43;6.13;;;;;;;;;;5047881;28;20517;-72
2024/04/07 00:03:38;;;;;;;9.63;5.53;;;;;;;;;;5042821;28;20029;-72
2024/04/07 00:06:03;;;;;;;10.35;5.72;;;;;;;;;;5041952;28;20044;-72
2024/04/07 00:08:28;;;;;;;10.57;6.53;;;;;;;;;;5046355;28;20017;-72
2024/04/07 00:10:53;;;;;;;12.10;5.97;;;;;;;;;;5048154;28;20371;-72
2024/04/07 00:13:18;;;;;;;11.10;6.60;;;;;;;;;;5040303;28;20488;-72
2024/04/07 00:15:44;;;;;;;17.77;10.55;;;;;;;;;;5042545;28;20025;-71
2024/04/07 00:18:09;;;;;;;12.68;7.43;;;;;;;;;;5043946;28;20041;-72
2024/04/07 00:20:35;;;;;;;10.48;6.65;;;;;;;;;;5041351;28;20037;-71
2024/04/07 00:23:00;;;;;;;12.02;7.55;;;;;;;;;;5047843;28;20033;-72
2024/04/07 00:25:25;;;;;;;6.93;4.65;;;;;;;;;;5048401;28;20029;-72
2024/04/07 00:27:50;;;;;;;10.55;5.07;;;;;;;;;;5046618;28;20020;-72
2024/04/07 00:30:15;;;;;;;8.43;4.65;;;;;;;;;;5030602;28;20386;-72
2024/04/07 00:32:41;;;;;;;9.13;5.75;;;;;;;;;;5042285;28;20547;-72
2024/04/07 00:35:07;;;;;;;9.20;5.43;;;;;;;;;;5045021;28;20032;-72
2024/04/07 00:37:32;;;;;;;8.02;4.88;;;;;;;;;;5049779;28;20067;-72
2024/04/07 00:39:58;;;;;;;10.10;5.50;;;;;;;;;;5047369;28;20037;-72
2024/04/07 00:42:24;;;;;;;9.45;5.85;;;;;;;;;;5046581;28;20127;-72
2024/04/07 00:44:49;;;;;;;7.90;5.35;;;;;;;;;;5042498;28;20112;-72
2024/04/07 00:47:15;;;;;;;9.20;6.22;;;;;;;;;;5045991;28;20032;-72
2024/04/07 00:49:41;;;;;;;10.02;6.00;;;;;;;;;;5046385;28;20025;-72
2024/04/07 00:52:06;;;;;;;8.38;5.60;;;;;;;;;;5048868;28;20017;-72
2024/04/07 00:54:32;;;;;;;10.77;5.78;;;;;;;;;;5047156;28;20071;-72
2024/04/07 00:56:57;;;;;;;9.93;6.38;;;;;;;;;;5037546;28;20064;-72
2024/04/07 00:59:23;;;;;;;10.10;5.28;;;;;;;;;;5044413;28;20035;-72
2024/04/07 01:01:48;;;;;;;8.25;5.70;;;;;;;;;;5039550;28;20040;-72
2024/04/07 01:04:13;;;;;;;7.65;5.03;;;;;;;;;;5048884;28;20111;-72
2024/04/07 01:06:38;;;;;;;9.35;4.85;;;;;;;;;;5047961;28;20481;-72
2024/04/07 01:09:04;;;;;;;9.45;6.32;;;;;;;;;;5044496;28;20601;-72
2024/04/07 01:11:29;;;;;;;11.90;7.20;;;;;;;;;;5045829;28;20033;-72
2024/04/07 01:13:55;;;;;;;13.30;7.38;;;;;;;;;;5040583;28;20026;-72
2024/04/07 01:16:20;;;;;;;9.85;5.43;;;;;;;;;;5046215;28;20147;-72
2024/04/07 01:18:46;;;;;;;10.63;5.80;;;;;;;;;;5037188;28;20144;-72
2024/04/07 01:21:11;;;;;;;9.52;6.05;;;;;;;;;;5043088;28;20037;-72
2024/04/07 01:23:36;;;;;;;8.15;4.80;;;;;;;;;;5045224;28;20024;-72
2024/04/07 01:26:02;;;;;;;7.70;5.07;;;;;;;;;;5042289;28;20025;-72
2024/04/07 01:28:27;;;;;;;7.15;4.50;;;;;;;;;;5042045;28;20029;-71
2024/04/07 01:30:52;;;;;;;7.43;4.70;;;;;;;;;;5045155;28;20067;-72
2024/04/07 01:33:17;;;;;;;10.57;5.25;;;;;;;;;;5042272;28;20017;-72
2024/04/07 01:35:43;;;;;;;10.27;4.50;;;;;;;;;;5042875;28;20079;-72
2024/04/07 01:38:08;;;;;;;7.68;4.53;;;;;;;;;;5046248;28;20068;-72
2024/04/07 01:40:33;;;;;;;7.70;4.90;;;;;;;;;;5048760;28;20036;-72
2024/04/07 01:42:59;;;;;;;9.23;5.57;;;;;;;;;;5043777;28;20032;-72
2024/04/07 01:45:24;;;;;;;7.47;4.50;;;;;;;;;;5045293;28;20029;-72
2024/04/07 01:47:49;;;;;;;7.50;4.50;;;;;;;;;;5047666;28;20029;-72
2024/04/07 01:50:14;;;;;;;9.05;4.72;;;;;;;;;;5043234;28;20013;-72
2024/04/07 01:52:39;;;;;;;7.07;3.67;;;;;;;;;;5044129;28;20489;-72
2024/04/07 01:55:05;;;;;;;7.20;4.40;;;;;;;;;;5041448;28;20112;-72
2024/04/07 01:57:31;;;;;;;7.18;4.10;;;;;;;;;;5040994;28;20116;-71
2024/04/07 01:59:56;;;;;;;10.38;4.18;;;;;;;;;;5046431;28;20052;-72
2024/04/07 02:02:22;;;;;;;8.48;3.58;;;;;;;;;;5047832;28;20040;-72
2024/04/07 02:04:48;;;;;;;6.95;3.80;;;;;;;;;;5044367;28;20040;-72
2024/04/07 02:07:13;;;;;;;7.38;4.50;;;;;;;;;;5043680;28;20131;-72
2024/04/07 02:09:39;;;;;;;6.07;3.42;;;;;;;;;;5041549;28;20028;-72
2024/04/07 02:12:04;;;;;;;6.10;3.22;;;;;;;;;;5040497;28;20021;-71
2024/04/07 02:14:30;;;;;;;6.53;3.45;;;;;;;;;;5048249;28;20021;-72
2024/04/07 02:16:56;;;;;;;5.28;3.40;;;;;;;;;;5045463;28;20044;-72
2024/04/07 02:19:21;;;;;;;7.90;3.85;;;;;;;;;;5045435;28;20104;-72
2024/04/07 02:21:46;;;;;;;10.50;4.40;;;;;;;;;;5044707;28;20116;-72
2024/04/07 02:24:11;;;;;;;10.05;5.13;;;;;;;;;;5045216;28;20109;-72
2024/04/07 02:26:36;;;;;;;10.52;5.70;;;;;;;;;;5041576;28;20029;-72
2024/04/07 02:29:03;;;;;;;9.05;4.90;;;;;;;;;;5046996;28;20021;-72
2024/04/07 02:31:28;;;;;;;12.65;5.55;;;;;;;;;;5048904;28;20033;-72
2024/04/07 02:33:54;;;;;;;11.23;5.10;;;;;;;;;;5046675;28;20038;-72
2024/04/07 02:36:19;;;;;;;8.98;5.32;;;;;;;;;;5048640;28;20029;-73
2024/04/07 02:38:45;;;;;;;7.20;4.30;;;;;;;;;;5044029;28;20026;-72
2024/04/07 02:41:11;;;;;;;7.50;3.72;;;;;;;;;;5043655;28;20482;-72
2024/04/07 02:43:36;;;;;;;7.50;4.13;;;;;;;;;;5047857;28;20052;-72
2024/04/07 02:48:45;;;;;;;8.88;5.35;;;;;;;;;;5048103;28;20552;-72
2024/04/07 02:51:11;;;;;;;11.07;5.93;;;;;;;;;;5045061;28;20035;-72
2024/04/07 02:53:36;;;;;;;15.85;7.38;;;;;;;;;;5040984;28;20478;-72
2024/04/07 02:56:02;;;;;;;11.80;6.43;;;;;;;;;;5051619;28;20036;-72
2024/04/07 02:58:27;;;;;;;8.27;4.65;;;;;;;;;;5047754;28;20029;-72
2024/04/07 03:00:52;;;;;;;7.13;3.58;;;;;;;;;;5048545;28;20029;-72
2024/04/07 03:03:17;;;;;;;6.35;3.53;;;;;;;;;;5046384;28;20064;-73
2024/04/07 03:05:43;;;;;;;5.18;2.88;;;;;;;;;;5043603;28;20029;-73
2024/04/07 03:08:08;;;;;;;4.53;2.50;;;;;;;;;;5046519;28;20115;-73
2024/04/07 03:10:33;;;;;;;5.00;2.78;;;;;;;;;;5047913;28;20047;-73
2024/04/07 03:12:58;;;;;;;4.88;2.90;;;;;;;;;;5047605;28;20032;-72
2024/04/07 03:15:24;;;;;;;4.10;2.22;;;;;;;;;;5044219;28;20036;-72
2024/04/07 03:17:49;;;;;;;4.82;2.70;;;;;;;;;;5042680;28;20162;-72
2024/04/07 03:20:15;;;;;;;4.75;2.70;;;;;;;;;;5044241;28;20752;-72
2024/04/07 03:22:40;;;;;;;4.93;2.83;;;;;;;;;;5045769;28;20429;-72
2024/04/07 03:25:05;;;;;;;6.32;3.60;;;;;;;;;;5049510;28;20103;-72
2024/04/07 03:27:30;;;;;;;8.93;3.53;;;;;;;;;;5048793;28;20393;-72
2024/04/07 03:29:55;;;;;;;6.05;3.08;;;;;;;;;;5044758;28;20107;-73
2024/04/07 03:32:21;;;;;;;4.90;2.75;;;;;;;;;;5045053;28;20021;-72
2024/04/07 03:34:46;;;;;;;6.60;3.70;;;;;;;;;;5045051;28;20036;-72
2024/04/07 03:37:11;;;;;;;6.65;3.53;;;;;;;;;;5040254;28;20113;-73
2024/04/07 03:39:36;;;;;;;7.03;3.33;;;;;;;;;;5043167;28;20039;-72
2024/04/07 03:42:02;;;;;;;5.68;3.58;;;;;;;;;;5026641;28;20025;-72
2024/04/07 03:44:29;;;;;;;7.07;3.45;;;;;;;;;;5025475;28;20508;-72
2024/04/07 03:46:57;;;;;;;7.10;3.30;;;;;;;;;;5046875;28;20025;-72
2024/04/07 03:49:22;;;;;;;6.43;3.70;;;;;;;;;;5039875;28;20020;-72
2024/04/07 03:51:48;;;;;;;6.80;3.33;;;;;;;;;;5043633;28;20749;-72
2024/04/07 03:54:13;;;;;;;6.13;3.50;;;;;;;;;;5039922;28;20049;-72
2024/04/07 03:56:38;;;;;;;8.15;3.78;;;;;;;;;;5043661;28;20028;-72
2024/04/07 03:59:04;;;;;;;20.75;3.97;;;;;;;;;;5040138;28;20420;-72
2024/04/07 04:01:29;;;;;;;6.32;3.30;;;;;;;;;;5046526;28;20035;-72
2024/04/07 04:03:54;;;;;;;9.00;3.38;;;;;;;;;;5041902;28;20032;-72
2024/04/07 04:06:19;;;;;;;7.45;3.83;;;;;;;;;;5039907;28;20038;-72
2024/04/07 04:08:45;;;;;;;6.57;3.60;;;;;;;;;;5045454;28;20036;-72
2024/04/07 04:11:11;;;;;;;6.32;3.22;;;;;;;;;;5042032;28;20033;-72
2024/04/07 04:13:37;;;;;;;4.95;2.58;;;;;;;;;;5046274;28;20470;-72
2024/04/07 04:16:03;;;;;;;6.57;3.40;;;;;;;;;;5040426;28;20510;-72
2024/04/07 04:18:28;;;;;;;8.35;4.00;;;;;;;;;;5039646;28;20040;-72
2024/04/07 04:20:53;;;;;;;6.85;3.85;;;;;;;;;;5043543;28;20024;-72
2024/04/07 04:23:19;;;;;;;7.15;3.72;;;;;;;;;;5022501;28;20565;-72
2024/04/07 04:25:51;;;;;;;4.85;2.70;;;;;;;;;;5042002;28;20052;-72
2024/04/07 04:28:16;;;;;;;7.18;2.65;;;;;;;;;;5041376;28;20092;-72
2024/04/07 04:30:49;;;;;;;6.15;3.22;;;;;;;;;;5043081;28;20025;-72
2024/04/07 04:33:15;;;;;;;5.82;2.85;;;;;;;;;;5040681;28;20034;-72
2024/04/07 04:35:40;;;;;;;5.13;3.03;;;;;;;;;;5042802;28;20043;-72
2024/04/07 04:38:05;;;;;;;7.75;3.33;;;;;;;;;;5039393;28;20036;-72
2024/04/07 04:40:30;;;;;;;5.35;2.90;;;;;;;;;;5045800;28;20036;-72
2024/04/07 04:42:55;;;;;;;5.97;2.72;;;;;;;;;;5039239;28;20025;-72
2024/04/07 04:45:21;;;;;;;5.88;3.28;;;;;;;;;;5040298;28;20510;-72
2024/04/07 04:47:47;;;;;;;6.13;3.20;;;;;;;;;;5042726;28;20051;-72
2024/04/07 04:50:12;;;;;;;5.00;2.85;;;;;;;;;;5040304;28;20029;-72
2024/04/07 04:52:37;;;;;;;6.80;2.67;;;;;;;;;;5042709;28;20025;-72
2024/04/07 04:55:04;;;;;;;5.22;2.60;;;;;;;;;;5040259;28;20014;-72
2024/04/07 04:57:30;;;;;;;5.82;3.00;;;;;;;;;;5042364;28;20039;-72
2024/04/07 04:59:55;;;;;;;5.72;3.10;;;;;;;;;;5039372;28;20112;-72
2024/04/07 05:02:20;;;;;;;7.40;3.00;;;;;;;;;;5042977;28;20086;-72
2024/04/07 05:04:46;;;;;;;7.95;3.35;;;;;;;;;;5041787;28;20104;-72
2024/04/07 05:07:11;;;;;;;5.38;3.10;;;;;;;;;;5039134;28;20086;-72
2024/04/07 05:09:36;;;;;;;5.10;2.60;;;;;;;;;;5044895;28;20436;-73
2024/04/07 05:12:03;;;;;;;6.82;2.67;;;;;;;;;;5038990;28;20025;-72
2024/04/07 05:14:28;;;;;;;4.05;2.40;;;;;;;;;;5039383;28;20027;-72
2024/04/07 05:16:53;;;;;;;6.72;2.55;;;;;;;;;;5041269;28;20039;-72
2024/04/07 05:19:18;;;;;;;6.88;2.83;;;;;;;;;;5041377;28;20025;-72
2024/04/07 05:21:44;;;;;;;6.97;2.88;;;;;;;;;;5042479;28;20481;-72
2024/04/07 05:24:09;;;;;;;5.25;2.80;;;;;;;;;;5039492;28;20040;-72
2024/04/07 05:26:34;;;;;;;4.28;2.35;;;;;;;;;;5037685;28;20486;-72
2024/04/07 05:28:59;;;;;;;10.27;2.60;;;;;;;;;;5041095;28;20044;-73
2024/04/07 05:31:25;;;;;;;5.95;2.83;;;;;;;;;;5041045;28;20021;-72
2024/04/07 05:33:50;;;;;;;5.35;2.90;;;;;;;;;;5043791;28;20057;-72
2024/04/07 05:36:15;;;;;;;6.38;3.05;;;;;;;;;;5040013;28;20378;-72
2024/04/07 05:38:41;;;;;;;6.78;3.00;;;;;;;;;;5042247;28;20460;-72
2024/04/07 05:41:06;;;;;;;5.90;3.13;;;;;;;;;;5040531;28;20028;-72
2024/04/07 05:43:32;;;;;;;4.85;2.38;;;;;;;;;;5039869;28;20080;-72
2024/04/07 05:46:03;;;;;;;6.05;2.30;;;;;;;;;;5040048;28;20021;-72
2024/04/07 05:48:29;;;;;;;5.35;2.50;;;;;;;;;;5040709;28;20057;-72
2024/04/07 05:50:55;;;;;;;4.90;2.17;;;;;;;;;;5040774;28;20024;-72
2024/04/07 05:53:20;;;;;;;5.32;2.50;;;;;;;;;;5041012;28;20028;-72
2024/04/07 05:55:45;;;;;;;5.22;2.13;;;;;;;;;;5038190;28;20048;-72
2024/04/07 05:58:10;;;;;;;5.40;2.63;;;;;;;;;;5038944;28;20045;-73
2024/04/07 06:00:36;;;;;;;4.53;2.42;;;;;;;;;;5042610;28;20079;-72
2024/04/07 06:03:02;;;;;;;3.85;1.80;;;;;;;;;;5042511;28;20041;-72
2024/04/07 06:05:27;;;;;;;4.75;2.15;;;;;;;;;;5042272;28;20469;-72
2024/04/07 06:07:52;;;;;;;3.13;1.77;;;;;;;;;;5042408;28;20029;-72
2024/04/07 06:10:17;;;;;;;5.57;2.05;;;;;;;;;;5044198;28;20025;-72
2024/04/07 06:12:43;;;;;;;3.85;1.70;;;;;;;;;;5045637;28;20029;-72
2024/04/07 06:15:09;;;;;;;4.10;1.73;;;;;;;;;;5041689;28;20033;-72
2024/04/07 06:17:34;;;;;;;5.55;2.08;;;;;;;;;;5045542;28;20090;-72
2024/04/07 06:19:59;;;;;;;3.47;1.50;;;;;;;;;;5042089;28;20485;-72
2024/04/07 06:22:26;;;;;;;4.05;2.30;;;;;;;;;;5041720;28;20036;-72
2024/04/07 06:24:51;;;;;;;3.90;1.95;;;;;;;;;;5034431;28;20025;-72
2024/04/07 06:27:16;;;;;;;4.22;2.10;;;;;;;;;;5050330;28;20040;-73
2024/04/07 06:29:41;;;;;;;4.33;2.10;;;;;;;;;;5050105;28;20423;-73
2024/04/07 06:32:07;;;;;;;4.55;1.70;;;;;;;;;;5046394;28;20284;-73
2024/04/07 06:34:32;;;;;;;3.80;1.63;;;;;;;;;;5043056;28;20024;-73
2024/04/07 06:36:57;;;;;;;3.35;1.60;;;;;;;;;;5043474;28;20032;-73
2024/04/07 06:39:22;;;;;;;3.10;1.90;;;;;;;;;;5041805;28;20450;-73
2024/04/07 06:41:47;;;;;;;3.60;1.75;;;;;;;;;;5047183;28;20522;-72
2024/04/07 06:44:13;;;;;;;4.30;1.70;;;;;;;;;;5049958;28;20034;-72
2024/04/07 06:46:38;;;;;;;2.85;1.55;;;;;;;;;;5047283;28;20087;-73
2024/04/07 06:49:03;;;;;;;3.28;1.73;;;;;;;;;;5044276;28;20091;-73
2024/04/07 06:51:31;;;;;;;2.92;1.70;;;;;;;;;;5055581;28;20013;-72
2024/04/07 06:53:56;;;;;;;4.05;1.92;;;;;;;;;;5057080;28;20408;-72
2024/04/07 06:56:22;;;;;;;5.38;1.90;;;;;;;;;;5055849;28;20158;-73
2024/04/07 06:58:47;;;;;;;3.83;1.50;;;;;;;;;;5049934;28;20021;-73
2024/04/07 07:01:12;;;;;;;3.30;1.45;;;;;;;;;;5046811;28;20799;-73
2024/04/07 07:03:37;;;;;;;5.93;1.52;;;;;;;;;;5048335;28;20037;-72
2024/04/07 07:06:03;;;;;;;4.60;1.70;;;;;;;;;;5056238;28;20052;-73
2024/04/07 07:08:28;;;;;;;3.03;1.40;;;;;;;;;;5057923;28;20029;-73
2024/04/07 07:11:03;;;;;;;3.45;1.60;;;;;;;;;;5049786;28;20056;-72
2024/04/07 07:13:29;;;;;;;6.38;2.15;;;;;;;;;;5051207;28;20028;-72
2024/04/07 07:15:54;;;;;;;3.22;1.23;;;;;;;;;;5043940;28;20026;-72
2024/04/07 07:18:20;;;;;;;3.58;1.48;;;;;;;;;;5045872;28;20496;-72
2024/04/07 07:20:45;;;;;;;2.72;1.40;;;;;;;;;;5054609;28;20029;-72
2024/04/07 07:23:10;;;;;;;4.80;1.00;;;;;;;;;;5053777;28;20028;-72
2024/04/07 07:25:35;;;;;;;5.22;1.80;;;;;;;;;;5051183;28;20055;-73
2024/04/07 07:28:00;;;;;;;4.30;1.40;;;;;;;;;;5046277;28;20113;-74
2024/04/07 07:30:26;;;;;;;3.63;1.70;;;;;;;;;;5046013;28;20281;-74
2024/04/07 07:32:51;;;;;;;4.28;1.95;;;;;;;;;;5055801;28;20029;-73
2024/04/07 07:35:16;;;;;;;3.65;1.50;;;;;;;;;;5058528;28;20079;-73
2024/04/07 07:37:41;;;;;;;2.95;1.40;;;;;;;;;;5053945;28;20094;-73
2024/04/07 07:40:07;;;;;;;5.27;1.57;;;;;;;;;;5052251;28;20575;-73
2024/04/07 07:42:32;;;;;;;2.80;1.13;;;;;;;;;;5047852;28;20277;-73
2024/04/07 07:44:57;;;;;;;2.67;1.25;;;;;;;;;;5044092;28;20029;-73
2024/04/07 07:47:23;;;;;;;2.03;1.10;;;;;;;;;;5061385;28;20028;-74
2024/04/07 07:49:48;;;;;;;2.13;1.00;;;;;;;;;;5052880;28;20821;-74
2024/04/07 07:52:13;;;;;;;2.85;1.15;;;;;;;;;;5046291;28;20319;-73
2024/04/07 07:54:38;;;;;;;5.53;1.02;;;;;;;;;;5049456;28;20366;-74
2024/04/07 07:57:04;;;;;;;3.83;1.70;;;;;;;;;;5044411;28;20037;-73
2024/04/07 07:59:29;;;;;;;2.22;1.00;;;;;;;;;;5043978;28;20029;-75
2024/04/07 08:01:54;;;;;;;2.22;1.27;;;;;;;;;;5042038;28;20038;-73
2024/04/07 08:04:20;;;;;;;3.58;1.00;;;;;;;;;;5049010;28;20032;-74
2024/04/07 08:06:45;;;;;;;2.45;1.08;;;;;;;;;;5027392;28;20035;-73
2024/04/07 08:09:10;;;;;;;3.15;1.10;;;;;;;;;;5033081;28;20104;-74
2024/04/07 08:11:35;;;;;;;1.87;1.00;;;;;;;;;;5046382;28;20113;-74
2024/04/07 08:14:00;;;;;;;2.40;1.27;;;;;;;;;;5043590;28;20287;-73
2024/04/07 08:16:26;;;;;;;3.03;1.20;;;;;;;;;;5049493;28;20279;-74
2024/04/07 08:18:51;;;;;;;3.83;1.07;;;;;;;;;;5047907;28;20267;-74
2024/04/07 08:21:16;;;;;;;4.18;1.20;;;;;;;;;;5045462;28;20652;-74
2024/04/07 08:23:42;;;;;;;3.10;1.00;;;;;;;;;;5044596;28;20027;-73
2024/04/07 08:26:07;;;;;;;3.70;1.00;;;;;;;;;;5046849;28;20412;-73
2024/04/07 08:28:32;;;;;;;3.13;1.17;;;;;;;;;;5046296;28;20302;-74
2024/04/07 08:30:58;;;;;;;6.13;1.25;;;;;;;;;;5048163;28;20272;-73
2024/04/07 08:33:23;;;;;;;2.47;1.00;;;;;;;;;;5048503;28;20295;-73
2024/04/07 08:35:48;;;;;;;3.03;1.27;;;;;;;;;;5047615;28;20029;-74
2024/04/07 08:38:13;;;;;;;3.73;1.03;;;;;;;;;;5044364;28;20274;-74
2024/04/07 08:40:39;;;;;;;1.97;0.97;;;;;;;;;;5046138;28;20628;-74
2024/04/07 08:43:05;;;;;;;2.97;1.15;;;;;;;;;;5046712;28;20283;-74
2024/04/07 08:45:31;;;;;;;3.88;1.15;;;;;;;;;;5048605;28;20025;-74
2024/04/07 08:47:56;;;;;;;2.77;0.90;;;;;;;;;;5042227;28;20505;-74
2024/04/07 08:50:21;;;;;;;4.25;0.90;;;;;;;;;;5041175;28;20283;-74
2024/04/07 08:52:47;;;;;;;1.98;0.98;;;;;;;;;;5041108;28;20028;-74
2024/04/07 08:55:12;;;;;;;2.50;1.08;;;;;;;;;;5038748;28;20057;-74
2024/04/07 08:57:38;;;;;;;2.65;0.85;;;;;;;;;;5040564;28;20060;-73
2024/04/07 09:00:06;;;;;;;2.47;0.90;;;;;;;;;;5043371;28;20048;-74
2024/04/07 09:02:31;;;;;;;3.22;0.88;;;;;;;;;;5044341;28;20029;-74
2024/04/07 09:04:57;;;;;;;1.45;0.80;;;;;;;;;;5039984;28;20029;-74
2024/04/07 09:07:23;;;;;;;1.73;0.70;;;;;;;;;;5041206;28;20502;-74
2024/04/07 09:09:48;;;;;;;2.40;1.00;;;;;;;;;;5044207;28;20056;-74
2024/04/07 09:12:13;;;;;;;6.77;1.63;;;;;;;;;;5039654;28;20025;-74
2024/04/07 09:14:44;;;;;;;1.70;0.55;;;;;;;;;;5041203;28;20282;-74
2024/04/07 09:17:10;;;;;;;2.45;0.93;;;;;;;;;;5038803;28;20036;-74
2024/04/07 09:19:35;;;;;;;1.80;0.80;;;;;;;;;;5045089;28;20024;-74
2024/04/07 09:22:02;;;;;;;2.50;0.80;;;;;;;;;;5041661;28;20034;-73
2024/04/07 09:24:28;;;;;;;2.25;0.98;;;;;;;;;;5038308;28;20044;-74
2024/04/07 09:26:56;;;;;;;3.20;0.80;;;;;;;;;;5041936;28;20036;-74
2024/04/07 09:29:21;;;;;;;2.25;0.70;;;;;;;;;;5039260;28;20040;-74
2024/04/07 09:31:46;;;;;;;2.97;0.85;;;;;;;;;;5044422;28;20028;-74
2024/04/07 09:34:12;;;;;;;2.10;0.70;;;;;;;;;;5037207;28;20026;-74
2024/04/07 09:36:37;;;;;;;2.73;1.00;;;;;;;;;;5039888;28;20113;-74
2024/04/07 09:39:03;;;;;;;2.60;0.80;;;;;;;;;;5041465;28;20275;-74
2024/04/07 09:41:29;;;;;;;1.73;0.90;;;;;;;;;;5046100;28;20040;-74
2024/04/07 09:43:55;;;;;;;3.80;1.50;;;;;;;;;;5044821;28;20366;-74
2024/04/07 09:46:21;;;;;;;2.63;1.00;;;;;;;;;;5045785;28;20040;-74
2024/04/07 09:48:47;;;;;;;3.45;1.40;;;;;;;;;;5044765;28;20063;-74
2024/04/07 09:51:15;;;;;;;3.50;0.90;;;;;;;;;;5046296;28;20105;-74
2024/04/07 09:53:45;;;;;;;3.40;0.85;;;;;;;;;;5045184;28;20018;-74
2024/04/07 09:56:11;;;;;;;3.45;0.95;;;;;;;;;;5042994;28;20048;-74
2024/04/07 09:58:37;;;;;;;4.38;1.23;;;;;;;;;;5045161;28;20029;-74
2024/04/07 10:01:02;;;;;;;5.63;0.98;;;;;;;;;;5045466;28;20045;-74
2024/04/07 10:03:28;;;;;;;2.35;1.00;;;;;;;;;;5051043;28;20413;-74
2024/04/07 10:05:53;;;;;;;3.15;1.08;;;;;;;;;;5041991;28;20048;-74
2024/04/07 10:08:19;;;;;;;3.42;1.00;;;;;;;;;;5042301;28;20033;-74
2024/04/07 10:10:44;;;;;;;3.60;1.40;;;;;;;;;;5046272;28;20505;-74
2024/04/07 10:13:10;;;;;;;4.80;1.05;;;;;;;;;;5041912;28;20500;-74
2024/04/07 10:15:35;;;;;;;2.58;1.00;;;;;;;;;;5045528;28;20514;-74
2024/04/07 10:18:17;;;;;;;2.13;0.90;;;;;;;;;;5045321;28;20048;-74
2024/04/07 10:20:42;;;;;;;6.32;1.20;;;;;;;;;;5045593;28;20033;-74
2024/04/07 10:23:07;;;;;;;2.60;0.90;;;;;;;;;;5043224;28;20040;-74
2024/04/07 10:25:34;;;;;;;2.80;0.90;;;;;;;;;;5043814;28;20279;-74
2024/04/07 10:27:59;;;;;;;2.40;0.98;;;;;;;;;;5051077;28;20114;-74
2024/04/07 10:30:25;;;;;;;2.78;0.90;;;;;;;;;;5046566;28;20040;-74
2024/04/07 10:32:50;;;;;;;5.80;1.10;;;;;;;;;;5043288;28;20386;-74
2024/04/07 10:35:15;;;;;;;2.05;0.95;;;;;;;;;;5042256;28;20029;-74
2024/04/07 10:37:45;;;;;;;2.00;0.90;;;;;;;;;;5047552;28;20112;-74
2024/04/07 10:40:12;;;;;;;3.15;1.25;;;;;;;;;;5043967;28;20041;-74
2024/04/07 10:42:38;;;;;;;3.63;1.42;;;;;;;;;;5044739;28;20029;-74
2024/04/07 10:45:04;;;;;;;3.80;1.10;;;;;;;;;;5044831;28;20103;-74
2024/04/07 10:47:30;;;;;;;3.00;1.20;;;;;;;;;;5041331;28;20029;-74
2024/04/07 10:49:55;;;;;;;8.43;1.30;;;;;;;;;;5048657;28;20025;-74
2024/04/07 10:52:23;;;;;;;3.92;1.10;;;;;;;;;;5041015;28;20037;-74
2024/04/07 10:54:48;;;;;;;4.03;1.40;;;;;;;;;;5044105;28;20024;-74
2024/04/07 10:57:14;;;;;;;4.05;1.38;;;;;;;;;;5041723;28;20661;-74
2024/04/07 10:59:40;;;;;;;5.30;1.20;;;;;;;;;;5048581;28;20433;-74
2024/04/07 11:02:11;;;;;;;3.13;0.90;;;;;;;;;;5043714;28;20029;-74
2024/04/07 11:04:36;;;;;;;2.72;1.10;;;;;;;;;;5042627;28;20032;-74
2024/04/07 11:07:02;;;;;;;2.88;1.05;;;;;;;;;;5042838;28;20033;-74
2024/04/07 11:09:27;;;;;;;6.38;1.30;;;;;;;;;;5043601;28;20033;-74
2024/04/07 11:11:54;;;;;;;3.10;1.10;;;;;;;;;;5045535;28;20183;-74
2024/04/07 11:14:22;;;;;;;2.20;0.90;;;;;;;;;;5040691;28;20031;-74
2024/04/07 11:16:50;;;;;;;8.43;1.30;;;;;;;;;;5043762;28;20028;-74
2024/04/07 11:19:16;;;;;;;2.50;0.60;;;;;;;;;;5041220;28;20050;-74
2024/04/07 11:21:41;;;;;;;3.22;1.13;;;;;;;;;;5043390;28;20041;-74
2024/04/07 11:24:06;;;;;;;3.33;1.00;;;;;;;;;;5040833;28;20041;-74
2024/04/07 11:26:32;;;;;;;2.40;1.00;;;;;;;;;;5043844;28;20283;-74
2024/04/07 11:28:58;;;;;;;3.17;1.07;;;;;;;;;;5040629;28;20263;-74
2024/04/07 11:31:25;;;;;;;7.60;1.15;;;;;;;;;;5041488;28;21260;-74
2024/04/07 11:33:52;;;;;;;4.72;1.10;;;;;;;;;;5042162;28;20025;-74
2024/04/07 11:36:18;;;;;;;2.53;1.10;;;;;;;;;;5040569;28;20025;-74
2024/04/07 11:38:43;;;;;;;3.17;1.00;;;;;;;;;;5043680;28;20537;-74
2024/04/07 11:41:08;;;;;;;3.83;1.47;;;;;;;;;;5046766;28;20311;-74
2024/04/07 11:43:33;;;;;;;2.13;1.20;;;;;;;;;;5044082;28;20500;-74
2024/04/07 11:45:59;;;;;;;4.73;1.10;;;;;;;;;;5045479;28;20025;-74
2024/04/07 11:48:26;;;;;;;3.88;1.27;;;;;;;;;;5040805;28;20349;-74
2024/04/07 11:50:52;;;;;;;4.45;1.17;;;;;;;;;;5045174;28;20056;-74
2024/04/07 11:53:17;;;;;;;3.00;1.05;;;;;;;;;;5044205;28;20488;-73
2024/04/07 11:55:42;;;;;;;3.07;1.13;;;;;;;;;;5042688;28;20025;-74
2024/04/07 11:58:09;;;;;;;2.70;0.98;;;;;;;;;;5040079;28;20336;-74
2024/04/07 12:00:34;;;;;;;1.85;0.82;;;;;;;;;;5042612;28;20029;-74
2024/04/07 12:02:59;;;;;;;3.08;1.17;;;;;;;;;;5043321;28;20028;-74
2024/04/07 12:05:24;;;;;;;4.37;1.20;;;;;;;;;;5043580;28;20029;-74
2024/04/07 12:07:49;;;;;;;4.43;1.10;;;;;;;;;;5041909;28;20287;-74
2024/04/07 12:10:15;;;;;;;3.77;1.00;;;;;;;;;;5043684;28;20505;-74
2024/04/07 12:12:40;;;;;;;2.20;1.10;;;;;;;;;;5041355;28;20350;-73
2024/04/07 12:15:05;;;;;;;4.43;1.73;;;;;;;;;;5041405;28;20815;-74
2024/04/07 12:17:31;;;;;;;5.93;1.05;;;;;;;;;;5041411;28;20276;-74
2024/04/07 12:19:56;;;;;;;3.42;0.75;;;;;;;;;;5043407;28;20607;-74
2024/04/07 12:22:21;;;;;;;1.83;0.97;;;;;;;;;;5042318;28;20029;-74
2024/04/07 12:24:48;;;;;;;3.28;1.00;;;;;;;;;;5043147;28;20287;-74
2024/04/07 12:27:13;;;;;;;4.82;1.50;;;;;;;;;;5043088;28;20041;-74
2024/04/07 12:29:43;;;;;;;2.75;0.93;;;;;;;;;;5041589;28;20037;-74
2024/04/07 12:32:08;;;;;;;1.73;0.90;;;;;;;;;;5048306;28;20432;-74
2024/04/07 12:34:33;;;;;;;4.30;1.20;;;;;;;;;;5042866;28;20033;-74
2024/04/07 12:36:59;;;;;;;3.35;1.05;;;;;;;;;;5039970;28;20044;-74
2024/04/07 12:39:24;;;;;;;4.43;1.20;;;;;;;;;;5039777;28;20124;-74
2024/04/07 12:41:49;;;;;;;3.53;0.98;;;;;;;;;;5037223;28;20033;-74
2024/04/07 12:44:15;;;;;;;2.63;0.93;;;;;;;;;;5043232;28;20033;-74
2024/04/07 12:46:41;;;;;;;3.40;1.17;;;;;;;;;;5048684;28;20155;-73
2024/04/07 12:49:07;;;;;;;4.35;1.42;;;;;;;;;;5050186;28;20021;-74
2024/04/07 12:51:32;;;;;;;5.87;1.20;;;;;;;;;;5045182;28;20371;-74
2024/04/07 12:53:57;;;;;;;9.07;1.42;;;;;;;;;;5041108;28;20040;-73
2024/04/07 12:56:22;;;;;;;4.30;1.30;;;;;;;;;;5047331;28;20448;-74
2024/04/07 12:58:48;;;;;;;2.53;0.90;;;;;;;;;;5048572;28;20279;-74
2024/04/07 13:01:13;;;;;;;6.57;1.45;;;;;;;;;;5045032;28;20055;-74
2024/04/07 13:03:38;;;;;;;3.37;1.40;;;;;;;;;;5044941;28;20110;-74
2024/04/07 13:06:04;;;;;;;3.33;0.90;;;;;;;;;;5038584;28;20346;-74
2024/04/07 13:08:29;;;;;;;5.28;1.98;;;;;;;;;;5025674;28;20060;-74
2024/04/07 13:10:55;;;;;;;4.80;1.13;;;;;;;;;;5043643;28;20102;-74
2024/04/07 13:13:23;;;;;;;3.45;1.33;;;;;;;;;;5038783;28;20343;-74
2024/04/07 13:15:52;;;;;;;5.35;1.27;;;;;;;;;;5041556;28;20060;-74
2024/04/07 13:18:18;;;;;;;6.03;1.20;;;;;;;;;;5023997;28;20029;-74
2024/04/07 13:20:43;;;;;;;3.20;1.50;;;;;;;;;;5038611;28;20469;-74
2024/04/07 13:23:09;;;;;;;3.80;1.40;;;;;;;;;;5040482;28;20106;-74
2024/04/07 13:25:34;;;;;;;3.20;1.17;;;;;;;;;;5043233;28;20029;-74
2024/04/07 13:27:59;;;;;;;5.00;1.20;;;;;;;;;;5040697;28;20302;-75
2024/04/07 13:30:25;;;;;;;2.65;1.00;;;;;;;;;;5047335;28;20298;-74
2024/04/07 13:32:50;;;;;;;5.13;1.30;;;;;;;;;;5042944;28;20035;-73
2024/04/07 13:35:16;;;;;;;2.95;1.20;;;;;;;;;;5041461;28;20489;-74
2024/04/07 13:37:41;;;;;;;3.57;1.67;;;;;;;;;;5048487;28;20025;-74
2024/04/07 13:40:06;;;;;;;4.93;1.17;;;;;;;;;;5044206;28;20558;-74
2024/04/07 13:42:31;;;;;;;2.88;0.98;;;;;;;;;;5040464;28;20033;-74
2024/04/07 13:44:57;;;;;;;4.20;1.40;;;;;;;;;;5039727;28;20151;-74
2024/04/07 13:47:23;;;;;;;2.45;1.02;;;;;;;;;;5038313;28;20497;-73
2024/04/07 13:49:48;;;;;;;2.90;1.20;;;;;;;;;;5042897;28;20040;-74
2024/04/07 13:52:13;;;;;;;6.17;1.60;;;;;;;;;;5040400;28;20324;-74
2024/04/07 13:54:39;;;;;;;2.90;1.10;;;;;;;;;;5040692;28;20283;-74
2024/04/07 13:57:04;;;;;;;3.23;1.10;;;;;;;;;;5028287;28;20079;-73
2024/04/07 13:59:29;;;;;;;3.70;1.20;;;;;;;;;;5044555;28;20151;-75
2024/04/07 14:01:54;;;;;;;7.17;1.40;;;;;;;;;;5042439;28;20433;-74
2024/04/07 14:04:20;;;;;;;210.63;25.58;;;;;;;;;;5040454;28;20639;-74
2024/04/07 14:06:45;;;;;;;6.45;1.65;;;;;;;;;;5039944;28;20114;-74
2024/04/07 14:09:11;;;;;;;3.23;1.17;;;;;;;;;;5042528;28;20044;-74
2024/04/07 14:11:39;;;;;;;3.95;1.10;;;;;;;;;;5046413;28;20278;-74
2024/04/07 14:14:07;;;;;;;3.45;1.17;;;;;;;;;;5039122;28;20057;-74
2024/04/07 14:16:34;;;;;;;3.30;0.98;;;;;;;;;;5037924;28;20037;-74
2024/04/07 14:19:00;;;;;;;2.97;1.10;;;;;;;;;;5042778;28;20021;-74
2024/04/07 14:21:25;;;;;;;3.67;1.10;;;;;;;;;;5039799;28;20117;-74
2024/04/07 14:23:50;;;;;;;3.43;0.97;;;;;;;;;;5041190;28;20346;-74
2024/04/07 14:26:15;;;;;;;5.13;1.50;;;;;;;;;;5043438;28;20315;-74
2024/04/07 14:28:40;;;;;;;3.50;1.00;;;;;;;;;;5045490;28;20370;-74
2024/04/07 14:31:06;;;;;;;3.63;1.10;;;;;;;;;;5045216;28;20385;-74
2024/04/07 14:33:31;;;;;;;4.32;1.25;;;;;;;;;;5042924;28;20768;-74